sensor_id;sensor_type;location;lat;lon;timestamp;pressure;altitude;pressure_sealevel;temperature;humidity
19676;BME280;39539;52.202;9.876;2023-07-30T00:01:52;100087.97;;;16.37;100.00
19676;BME280;39539;52.202;9.876;2023-07-30T00:04:17;100090.03;;;16.30;100.00
19676;BME280;39539;52.202;9.876;2023-07-30T00:06:44;100079.03;;;16.27;100.00
19676;BME280;39539;52.202;9.876;2023-07-30T00:09:09;100084.88;;;16.19;100.00
19676;BME280;39539;52.202;9.876;2023-07-30T00:11:34;100101.78;;;16.19;100.00
19676;BME280;39539;52.202;9.876;2023-07-30T00:14:00;100105.75;;;16.11;100.00
19676;BME280;39539;52.202;9.876;2023-07-30T00:16:26;100108.69;;;16.10;100.00
19676;BME280;39539;52.202;9.876;2023-07-30T00:18:51;100111.63;;;16.08;100.00
19676;BME280;39539;52.202;9.876;2023-07-30T00:21:18;100104.88;;;16.01;100.00
19676;BME280;39539;52.202;9.876;2023-07-30T00:23:43;100104.25;;;15.93;100.00
19676;BME280;39539;52.202;9.876;2023-07-30T00:26:09;100100.72;;;15.88;100.00
19676;BME280;39539;52.202;9.876;2023-07-30T00:28:34;100084.31;;;15.74;100.00
19676;BME280;39539;52.202;9.876;2023-07-30T00:30:59;100092.06;;;15.76;100.00
19676;BME280;39539;52.202;9.876;2023-07-30T00:33:24;100112.47;;;15.82;100.00
19676;BME280;39539;52.202;9.876;2023-07-30T00:35:51;100103.91;;;15.80;100.00
19676;BME280;39539;52.202;9.876;2023-07-30T00:38:17;100100.97;;;15.81;100.00
19676;BME280;39539;52.202;9.876;2023-07-30T00:40:43;100104.72;;;15.80;100.00
19676;BME280;39539;52.202;9.876;2023-07-30T00:43:09;100094.19;;;15.74;100.00
19676;BME280;39539;52.202;9.876;2023-07-30T00:45:35;100101.19;;;15.75;100.00
19676;BME280;39539;52.202;9.876;2023-07-30T00:48:00;100118.88;;;15.76;100.00
19676;BME280;39539;52.202;9.876;2023-07-30T00:50:26;100118.56;;;15.72;100.00
19676;BME280;39539;52.202;9.876;2023-07-30T00:52:51;100135.47;;;15.73;100.00
19676;BME280;39539;52.202;9.876;2023-07-30T00:55:17;100132.22;;;15.70;100.00
19676;BME280;39539;52.202;9.876;2023-07-30T00:57:43;100127.13;;;15.69;100.00
19676;BME280;39539;52.202;9.876;2023-07-30T01:00:09;100137.91;;;15.74;100.00
19676;BME280;39539;52.202;9.876;2023-07-30T01:02:37;100141.44;;;15.85;100.00
19676;BME280;39539;52.202;9.876;2023-07-30T01:05:03;100148.53;;;15.96;100.00
19676;BME280;39539;52.202;9.876;2023-07-30T01:07:29;100142.16;;;16.02;100.00
19676;BME280;39539;52.202;9.876;2023-07-30T01:09:55;100151.88;;;16.13;100.00
19676;BME280;39539;52.202;9.876;2023-07-30T01:12:21;100155.72;;;16.23;100.00
19676;BME280;39539;52.202;9.876;2023-07-30T01:14:47;100159.53;;;16.32;100.00
19676;BME280;39539;52.202;9.876;2023-07-30T01:17:13;100148.38;;;16.45;100.00
19676;BME280;39539;52.202;9.876;2023-07-30T01:19:38;100141.97;;;16.51;100.00
19676;BME280;39539;52.202;9.876;2023-07-30T01:22:04;100147.91;;;16.58;100.00
19676;BME280;39539;52.202;9.876;2023-07-30T01:24:29;100160.81;;;16.67;100.00
19676;BME280;39539;52.202;9.876;2023-07-30T01:26:58;100154.75;;;16.76;100.00
19676;BME280;39539;52.202;9.876;2023-07-30T01:29:38;100169.25;;;16.80;100.00
19676;BME280;39539;52.202;9.876;2023-07-30T01:32:08;100164.44;;;16.82;100.00
19676;BME280;39539;52.202;9.876;2023-07-30T01:34:35;100173.88;;;16.90;100.00
19676;BME280;39539;52.202;9.876;2023-07-30T01:37:02;100170.38;;;16.90;100.00
19676;BME280;39539;52.202;9.876;2023-07-30T01:39:28;100174.44;;;16.97;100.00
19676;BME280;39539;52.202;9.876;2023-07-30T01:41:54;100173.13;;;17.00;100.00
19676;BME280;39539;52.202;9.876;2023-07-30T01:44:20;100172.88;;;17.01;100.00
19676;BME280;39539;52.202;9.876;2023-07-30T01:46:45;100163.47;;;16.99;100.00
19676;BME280;39539;52.202;9.876;2023-07-30T01:49:11;100166.38;;;16.97;100.00
19676;BME280;39539;52.202;9.876;2023-07-30T01:51:36;100169.63;;;16.99;100.00
19676;BME280;39539;52.202;9.876;2023-07-30T01:54:01;100166.38;;;16.92;100.00
19676;BME280;39539;52.202;9.876;2023-07-30T01:56:27;100178.44;;;16.90;100.00
19676;BME280;39539;52.202;9.876;2023-07-30T01:58:52;100180.31;;;16.89;100.00
19676;BME280;39539;52.202;9.876;2023-07-30T02:01:17;100171.06;;;16.75;100.00
19676;BME280;39539;52.202;9.876;2023-07-30T02:03:42;100181.78;;;16.70;100.00
19676;BME280;39539;52.202;9.876;2023-07-30T02:06:08;100182.25;;;16.56;100.00
19676;BME280;39539;52.202;9.876;2023-07-30T02:08:33;100168.66;;;16.36;100.00
19676;BME280;39539;52.202;9.876;2023-07-30T02:10:59;100180.44;;;16.30;100.00
19676;BME280;39539;52.202;9.876;2023-07-30T02:13:25;100186.78;;;16.19;100.00
19676;BME280;39539;52.202;9.876;2023-07-30T02:15:51;100187.53;;;16.09;100.00
19676;BME280;39539;52.202;9.876;2023-07-30T02:18:16;100182.06;;;15.99;100.00
19676;BME280;39539;52.202;9.876;2023-07-30T02:20:42;100189.75;;;15.90;100.00
19676;BME280;39539;52.202;9.876;2023-07-30T02:23:07;100184.19;;;15.69;100.00
19676;BME280;39539;52.202;9.876;2023-07-30T02:25:33;100165.28;;;15.54;100.00
19676;BME280;39539;52.202;9.876;2023-07-30T02:27:59;100171.59;;;15.48;100.00
19676;BME280;39539;52.202;9.876;2023-07-30T02:30:25;100180.47;;;15.48;100.00
19676;BME280;39539;52.202;9.876;2023-07-30T02:32:51;100186.56;;;15.44;100.00
19676;BME280;39539;52.202;9.876;2023-07-30T02:35:16;100190.31;;;15.43;100.00
19676;BME280;39539;52.202;9.876;2023-07-30T02:37:41;100189.38;;;15.32;100.00
19676;BME280;39539;52.202;9.876;2023-07-30T02:40:07;100193.59;;;15.28;100.00
19676;BME280;39539;52.202;9.876;2023-07-30T02:42:32;100186.28;;;15.18;100.00
19676;BME280;39539;52.202;9.876;2023-07-30T02:44:58;100196.47;;;15.21;100.00
19676;BME280;39539;52.202;9.876;2023-07-30T02:47:23;100179.97;;;15.08;100.00
19676;BME280;39539;52.202;9.876;2023-07-30T02:49:48;100182.16;;;15.11;100.00
19676;BME280;39539;52.202;9.876;2023-07-30T02:52:14;100188.19;;;15.01;100.00
19676;BME280;39539;52.202;9.876;2023-07-30T02:54:39;100193.47;;;14.96;100.00
19676;BME280;39539;52.202;9.876;2023-07-30T02:57:05;100190.50;;;14.92;100.00
19676;BME280;39539;52.202;9.876;2023-07-30T02:59:30;100195.03;;;14.92;100.00
19676;BME280;39539;52.202;9.876;2023-07-30T03:01:55;100197.56;;;14.81;100.00
19676;BME280;39539;52.202;9.876;2023-07-30T03:04:21;100197.88;;;14.85;100.00
19676;BME280;39539;52.202;9.876;2023-07-30T03:06:46;100206.16;;;14.84;100.00
19676;BME280;39539;52.202;9.876;2023-07-30T03:09:11;100205.59;;;14.81;100.00
19676;BME280;39539;52.202;9.876;2023-07-30T03:11:37;100213.72;;;14.70;100.00
19676;BME280;39539;52.202;9.876;2023-07-30T03:14:02;100212.94;;;14.69;100.00
19676;BME280;39539;52.202;9.876;2023-07-30T03:16:27;100215.84;;;14.68;100.00
19676;BME280;39539;52.202;9.876;2023-07-30T03:18:53;100207.72;;;14.63;100.00
19676;BME280;39539;52.202;9.876;2023-07-30T03:21:18;100206.69;;;14.64;100.00
19676;BME280;39539;52.202;9.876;2023-07-30T03:23:43;100211.16;;;14.58;100.00
19676;BME280;39539;52.202;9.876;2023-07-30T03:26:10;100211.88;;;14.53;100.00
19676;BME280;39539;52.202;9.876;2023-07-30T03:28:35;100221.91;;;14.63;100.00
19676;BME280;39539;52.202;9.876;2023-07-30T03:31:01;100216.50;;;14.58;100.00
19676;BME280;39539;52.202;9.876;2023-07-30T03:33:26;100227.19;;;14.58;100.00
19676;BME280;39539;52.202;9.876;2023-07-30T03:35:52;100218.03;;;14.54;100.00
19676;BME280;39539;52.202;9.876;2023-07-30T03:38:17;100215.72;;;14.46;100.00
19676;BME280;39539;52.202;9.876;2023-07-30T03:40:42;100225.72;;;14.50;100.00
19676;BME280;39539;52.202;9.876;2023-07-30T03:43:08;100232.56;;;14.58;100.00
19676;BME280;39539;52.202;9.876;2023-07-30T03:45:35;100240.56;;;14.58;100.00
19676;BME280;39539;52.202;9.876;2023-07-30T03:48:00;100237.06;;;14.57;100.00
19676;BME280;39539;52.202;9.876;2023-07-30T03:50:25;100235.78;;;14.60;100.00
19676;BME280;39539;52.202;9.876;2023-07-30T03:52:50;100248.75;;;14.68;100.00
19676;BME280;39539;52.202;9.876;2023-07-30T03:55:16;100244.19;;;14.69;100.00
19676;BME280;39539;52.202;9.876;2023-07-30T03:57:41;100249.88;;;14.72;100.00
19676;BME280;39539;52.202;9.876;2023-07-30T04:00:07;100259.59;;;14.78;100.00
19676;BME280;39539;52.202;9.876;2023-07-30T04:02:32;100245.16;;;14.79;100.00
19676;BME280;39539;52.202;9.876;2023-07-30T04:04:59;100253.91;;;14.92;100.00
19676;BME280;39539;52.202;9.876;2023-07-30T04:07:25;100245.78;;;15.03;100.00
19676;BME280;39539;52.202;9.876;2023-07-30T04:09:51;100236.75;;;15.10;100.00
19676;BME280;39539;52.202;9.876;2023-07-30T04:12:17;100249.97;;;15.16;100.00
19676;BME280;39539;52.202;9.876;2023-07-30T04:14:44;100244.59;;;15.16;100.00
19676;BME280;39539;52.202;9.876;2023-07-30T04:17:09;100253.28;;;15.23;100.00
19676;BME280;39539;52.202;9.876;2023-07-30T04:19:34;100255.53;;;15.32;100.00
19676;BME280;39539;52.202;9.876;2023-07-30T04:22:00;100251.84;;;15.38;100.00
19676;BME280;39539;52.202;9.876;2023-07-30T04:24:25;100248.31;;;15.54;100.00
19676;BME280;39539;52.202;9.876;2023-07-30T04:26:51;100253.38;;;15.73;100.00
19676;BME280;39539;52.202;9.876;2023-07-30T04:29:16;100256.09;;;15.78;100.00
19676;BME280;39539;52.202;9.876;2023-07-30T04:31:42;100253.56;;;15.93;100.00
19676;BME280;39539;52.202;9.876;2023-07-30T04:34:07;100249.41;;;16.02;100.00
19676;BME280;39539;52.202;9.876;2023-07-30T04:36:32;100244.75;;;16.25;100.00
19676;BME280;39539;52.202;9.876;2023-07-30T04:38:58;100253.66;;;16.63;100.00
19676;BME280;39539;52.202;9.876;2023-07-30T04:41:23;100241.94;;;16.74;100.00
19676;BME280;39539;52.202;9.876;2023-07-30T04:43:49;100237.38;;;16.74;100.00
19676;BME280;39539;52.202;9.876;2023-07-30T04:46:15;100246.31;;;16.80;100.00
19676;BME280;39539;52.202;9.876;2023-07-30T04:48:40;100251.78;;;17.00;100.00
19676;BME280;39539;52.202;9.876;2023-07-30T04:51:06;100248.44;;;17.25;100.00
19676;BME280;39539;52.202;9.876;2023-07-30T04:53:31;100253.31;;;17.34;100.00
19676;BME280;39539;52.202;9.876;2023-07-30T04:55:56;100240.75;;;17.49;100.00
19676;BME280;39539;52.202;9.876;2023-07-30T04:58:22;100240.53;;;17.61;100.00
19676;BME280;39539;52.202;9.876;2023-07-30T05:00:48;100247.56;;;17.72;100.00
19676;BME280;39539;52.202;9.876;2023-07-30T05:03:14;100251.09;;;17.78;100.00
19676;BME280;39539;52.202;9.876;2023-07-30T05:05:39;100244.66;;;17.89;100.00
19676;BME280;39539;52.202;9.876;2023-07-30T05:08:04;100224.22;;;17.88;100.00
19676;BME280;39539;52.202;9.876;2023-07-30T05:10:30;100223.97;;;17.95;100.00
19676;BME280;39539;52.202;9.876;2023-07-30T05:12:55;100229.63;;;18.04;100.00
19676;BME280;39539;52.202;9.876;2023-07-30T05:15:20;100235.56;;;18.16;100.00
19676;BME280;39539;52.202;9.876;2023-07-30T05:17:46;100221.00;;;18.17;100.00
19676;BME280;39539;52.202;9.876;2023-07-30T05:20:11;100224.81;;;18.21;100.00
19676;BME280;39539;52.202;9.876;2023-07-30T05:22:36;100230.72;;;18.23;100.00
19676;BME280;39539;52.202;9.876;2023-07-30T05:25:02;100223.72;;;18.22;100.00
19676;BME280;39539;52.202;9.876;2023-07-30T05:27:27;100222.66;;;18.18;100.00
19676;BME280;39539;52.202;9.876;2023-07-30T05:29:54;100228.28;;;18.22;100.00
19676;BME280;39539;52.202;9.876;2023-07-30T05:32:20;100222.91;;;18.11;100.00
19676;BME280;39539;52.202;9.876;2023-07-30T05:34:45;100223.16;;;18.00;100.00
19676;BME280;39539;52.202;9.876;2023-07-30T05:37:10;100222.63;;;18.08;100.00
19676;BME280;39539;52.202;9.876;2023-07-30T05:39:35;100225.59;;;18.16;100.00
19676;BME280;39539;52.202;9.876;2023-07-30T05:42:01;100230.16;;;18.31;100.00
19676;BME280;39539;52.202;9.876;2023-07-30T05:44:26;100228.28;;;18.47;100.00
19676;BME280;39539;52.202;9.876;2023-07-30T05:46:51;100222.09;;;18.62;100.00
19676;BME280;39539;52.202;9.876;2023-07-30T05:49:17;100196.50;;;18.65;100.00
19676;BME280;39539;52.202;9.876;2023-07-30T05:51:42;100205.91;;;18.72;100.00
19676;BME280;39539;52.202;9.876;2023-07-30T05:54:07;100217.22;;;19.00;100.00
19676;BME280;39539;52.202;9.876;2023-07-30T05:56:33;100191.88;;;18.96;100.00
19676;BME280;39539;52.202;9.876;2023-07-30T05:58:58;100196.22;;;18.87;100.00
19676;BME280;39539;52.202;9.876;2023-07-30T06:01:23;100206.03;;;19.27;100.00
19676;BME280;39539;52.202;9.876;2023-07-30T06:03:48;100212.78;;;19.29;100.00
19676;BME280;39539;52.202;9.876;2023-07-30T06:06:14;100207.34;;;19.45;99.74
19676;BME280;39539;52.202;9.876;2023-07-30T06:08:39;100212.50;;;19.86;100.00
19676;BME280;39539;52.202;9.876;2023-07-30T06:11:05;100211.50;;;20.16;95.26
19676;BME280;39539;52.202;9.876;2023-07-30T06:13:30;100200.78;;;20.35;93.19
19676;BME280;39539;52.202;9.876;2023-07-30T06:15:55;100203.69;;;20.78;92.68
19676;BME280;39539;52.202;9.876;2023-07-30T06:18:21;100206.44;;;21.21;89.77
19676;BME280;39539;52.202;9.876;2023-07-30T06:20:46;100202.00;;;22.57;80.02
19676;BME280;39539;52.202;9.876;2023-07-30T06:23:12;100184.59;;;24.36;70.64
19676;BME280;39539;52.202;9.876;2023-07-30T06:25:37;100187.94;;;25.04;66.61
19676;BME280;39539;52.202;9.876;2023-07-30T06:28:04;100175.94;;;24.57;67.80
19676;BME280;39539;52.202;9.876;2023-07-30T06:30:29;100168.44;;;24.31;67.15
19676;BME280;39539;52.202;9.876;2023-07-30T06:32:56;100168.63;;;24.35;67.05
19676;BME280;39539;52.202;9.876;2023-07-30T06:35:21;100154.59;;;24.73;64.96
19676;BME280;39539;52.202;9.876;2023-07-30T06:37:46;100161.44;;;27.38;58.24
19676;BME280;39539;52.202;9.876;2023-07-30T06:40:12;100154.16;;;30.53;51.43
19676;BME280;39539;52.202;9.876;2023-07-30T06:42:37;100135.47;;;33.29;45.86
19676;BME280;39539;52.202;9.876;2023-07-30T06:45:03;100125.94;;;35.52;40.26
19676;BME280;39539;52.202;9.876;2023-07-30T06:47:28;100116.63;;;36.75;37.96
19676;BME280;39539;52.202;9.876;2023-07-30T06:49:53;100111.69;;;37.37;36.68
19676;BME280;39539;52.202;9.876;2023-07-30T06:52:19;100101.50;;;37.08;35.39
19676;BME280;39539;52.202;9.876;2023-07-30T06:54:45;100103.13;;;38.39;34.43
19676;BME280;39539;52.202;9.876;2023-07-30T06:57:10;100110.84;;;39.34;35.04
19676;BME280;39539;52.202;9.876;2023-07-30T06:59:35;100125.00;;;39.47;33.80
19676;BME280;39539;52.202;9.876;2023-07-30T07:02:01;100123.06;;;39.44;33.29
19676;BME280;39539;52.202;9.876;2023-07-30T07:04:26;100121.22;;;39.30;33.71
19676;BME280;39539;52.202;9.876;2023-07-30T07:06:51;100123.59;;;38.97;33.29
19676;BME280;39539;52.202;9.876;2023-07-30T07:09:18;100130.00;;;39.59;32.31
19676;BME280;39539;52.202;9.876;2023-07-30T07:11:43;100117.16;;;39.96;31.94
19676;BME280;39539;52.202;9.876;2023-07-30T07:14:09;100119.63;;;40.41;31.94
19676;BME280;39539;52.202;9.876;2023-07-30T07:16:34;100120.84;;;41.03;31.68
19676;BME280;39539;52.202;9.876;2023-07-30T07:18:59;100111.91;;;40.25;32.57
19676;BME280;39539;52.202;9.876;2023-07-30T07:21:25;100102.38;;;40.26;30.77
19676;BME280;39539;52.202;9.876;2023-07-30T07:23:51;100113.56;;;40.70;32.02
19676;BME280;39539;52.202;9.876;2023-07-30T07:26:16;100110.41;;;40.68;32.14
19676;BME280;39539;52.202;9.876;2023-07-30T07:28:42;100097.19;;;40.01;31.29
19676;BME280;39539;52.202;9.876;2023-07-30T07:31:07;100103.00;;;40.34;31.21
19676;BME280;39539;52.202;9.876;2023-07-30T07:33:33;100087.84;;;38.99;31.86
19676;BME280;39539;52.202;9.876;2023-07-30T07:36:05;100101.44;;;39.24;32.00
19676;BME280;39539;52.202;9.876;2023-07-30T07:38:33;100101.75;;;39.61;32.04
19676;BME280;39539;52.202;9.876;2023-07-30T07:41:02;100098.38;;;40.27;31.17
19676;BME280;39539;52.202;9.876;2023-07-30T07:43:27;100104.69;;;40.95;30.50
19676;BME280;39539;52.202;9.876;2023-07-30T07:45:53;100097.88;;;41.36;30.05
19676;BME280;39539;52.202;9.876;2023-07-30T07:48:18;100102.91;;;40.41;30.33
19676;BME280;39539;52.202;9.876;2023-07-30T07:50:45;100104.16;;;40.60;30.19
19676;BME280;39539;52.202;9.876;2023-07-30T07:53:10;100095.78;;;39.32;31.34
19676;BME280;39539;52.202;9.876;2023-07-30T07:55:35;100104.13;;;39.62;32.04
19676;BME280;39539;52.202;9.876;2023-07-30T07:58:01;100105.38;;;40.35;31.01
19676;BME280;39539;52.202;9.876;2023-07-30T08:00:26;100088.25;;;39.59;30.07
19676;BME280;39539;52.202;9.876;2023-07-30T08:02:51;100088.13;;;36.71;32.51
19676;BME280;39539;52.202;9.876;2023-07-30T08:05:18;100098.88;;;35.03;34.66
19676;BME280;39539;52.202;9.876;2023-07-30T08:07:47;100095.69;;;32.70;38.52
19676;BME280;39539;52.202;9.876;2023-07-30T08:10:12;100108.72;;;31.81;40.59
19676;BME280;39539;52.202;9.876;2023-07-30T08:12:37;100130.97;;;31.17;41.62
19676;BME280;39539;52.202;9.876;2023-07-30T08:15:03;100129.94;;;30.55;42.06
19676;BME280;39539;52.202;9.876;2023-07-30T08:17:29;100149.72;;;32.09;41.00
19676;BME280;39539;52.202;9.876;2023-07-30T08:19:54;100134.50;;;33.74;39.05
19676;BME280;39539;52.202;9.876;2023-07-30T08:22:19;100132.66;;;34.75;38.14
19676;BME280;39539;52.202;9.876;2023-07-30T08:24:45;100119.00;;;36.37;36.26
19676;BME280;39539;52.202;9.876;2023-07-30T08:27:10;100123.66;;;37.19;35.27
19676;BME280;39539;52.202;9.876;2023-07-30T08:29:35;100114.19;;;37.10;33.83
19676;BME280;39539;52.202;9.876;2023-07-30T08:32:01;100112.28;;;37.80;34.31
19676;BME280;39539;52.202;9.876;2023-07-30T08:34:26;100091.66;;;37.81;32.37
19676;BME280;39539;52.202;9.876;2023-07-30T08:36:51;100078.44;;;37.33;33.59
19676;BME280;39539;52.202;9.876;2023-07-30T08:39:17;100075.56;;;37.55;33.80
19676;BME280;39539;52.202;9.876;2023-07-30T08:41:43;100072.06;;;37.43;32.95
19676;BME280;39539;52.202;9.876;2023-07-30T08:44:09;100070.44;;;37.42;33.17
19676;BME280;39539;52.202;9.876;2023-07-30T08:46:36;100069.84;;;37.02;33.27
19676;BME280;39539;52.202;9.876;2023-07-30T08:49:01;100070.72;;;36.71;33.44
19676;BME280;39539;52.202;9.876;2023-07-30T08:51:27;100071.53;;;36.75;33.83
19676;BME280;39539;52.202;9.876;2023-07-30T08:53:53;100076.88;;;37.32;34.56
19676;BME280;39539;52.202;9.876;2023-07-30T08:56:23;100074.59;;;36.98;32.94
19676;BME280;39539;52.202;9.876;2023-07-30T08:58:50;100064.44;;;36.09;33.71
19676;BME280;39539;52.202;9.876;2023-07-30T09:01:17;100068.75;;;36.71;35.13
19676;BME280;39539;52.202;9.876;2023-07-30T09:03:43;100071.44;;;37.03;33.34
19676;BME280;39539;52.202;9.876;2023-07-30T09:06:09;100069.41;;;35.25;35.51
